createdAt,value
2016-09-13T00:00:41.212Z,15.7
2016-09-13T00:01:41.234Z,15.73
2016-09-13T00:02:41.224Z,15.77
2016-09-13T00:03:41.207Z,15.73
2016-09-13T00:04:41.198Z,15.84
2016-09-13T00:05:41.760Z,15.8
2016-09-13T00:06:41.213Z,15.84
2016-09-13T00:07:41.182Z,15.83
2016-09-13T00:08:41.201Z,15.74
2016-09-13T00:09:41.187Z,15.77
2016-09-13T00:10:41.186Z,15.84
2016-09-13T00:11:41.193Z,15.81
2016-09-13T00:12:41.179Z,15.92
2016-09-13T00:13:41.162Z,15.88
2016-09-13T00:14:41.169Z,15.81
2016-09-13T00:15:41.179Z,15.91
2016-09-13T00:16:41.160Z,15.89
2016-09-13T00:17:41.147Z,15.91
2016-09-13T00:18:41.160Z,15.98
2016-09-13T00:19:41.143Z,16.02
2016-09-13T00:20:41.147Z,15.99
2016-09-13T00:21:41.178Z,16.04
2016-09-13T00:22:41.137Z,16.07
2016-09-13T00:23:41.147Z,16.06
2016-09-13T00:24:41.121Z,16.16
2016-09-13T00:25:41.125Z,16.14
2016-09-13T00:26:41.122Z,16.14
2016-09-13T00:27:41.130Z,16.07
2016-09-13T00:28:41.124Z,16.13
2016-09-13T00:29:41.106Z,16.13
2016-09-13T00:30:41.115Z,16.11
2016-09-13T00:31:41.108Z,16.16
2016-09-13T00:32:41.094Z,16.13
2016-09-13T00:33:41.103Z,16.08
2016-09-13T00:34:41.090Z,16.13
2016-09-13T00:35:41.086Z,16.16
2016-09-13T00:36:41.090Z,16.13
2016-09-13T00:37:41.080Z,16.1
2016-09-13T00:38:41.089Z,16.16
2016-09-13T00:39:41.083Z,16.21
2016-09-13T00:40:41.070Z,16.21
2016-09-13T00:41:41.077Z,16.11
2016-09-13T00:42:41.071Z,16.3
2016-09-13T00:43:41.067Z,16.1
2016-09-13T00:44:41.055Z,16.26
2016-09-13T00:45:41.375Z,16.22
2016-09-13T00:46:41.052Z,16.17
2016-09-13T00:47:41.045Z,16.21
2016-09-13T00:48:41.041Z,16.13
2016-09-13T00:49:41.043Z,16.18
2016-09-13T00:50:41.048Z,16.18
2016-09-13T00:51:41.352Z,16.08
2016-09-13T00:52:41.039Z,16.13
2016-09-13T00:53:41.029Z,16.21
2016-09-13T00:54:41.022Z,16.04
2016-09-13T00:55:41.024Z,16.14
2016-09-13T00:56:41.023Z,16.07
2016-09-13T00:57:41.013Z,16.07
2016-09-13T00:58:41.015Z,16.07
2016-09-13T00:59:41.013Z,16.06
2016-09-13T01:00:41.012Z,16.06
2016-09-13T01:01:41.000Z,16.1
2016-09-13T01:02:41.015Z,16.08
2016-09-13T01:03:40.993Z,16.04
2016-09-13T01:04:40.990Z,16.04
2016-09-13T01:05:40.997Z,16.06
2016-09-13T01:06:40.992Z,16.08
2016-09-13T01:07:40.981Z,16.06
2016-09-13T01:08:40.999Z,16.17
2016-09-13T01:09:40.971Z,16.17
2016-09-13T01:10:40.978Z,16.18
2016-09-13T01:11:40.978Z,16.17
2016-09-13T01:12:40.960Z,16.21
2016-09-13T01:13:40.963Z,16.1
2016-09-13T01:14:40.960Z,16.08
2016-09-13T01:15:40.954Z,16.14
2016-09-13T01:16:40.965Z,16.13
2016-09-13T01:17:40.963Z,16.17
2016-09-13T01:18:40.954Z,16.25
2016-09-13T01:19:40.946Z,16.26
2016-09-13T01:20:40.950Z,16.21
2016-09-13T01:21:40.947Z,16.25
2016-09-13T01:22:41.259Z,16.32
2016-09-13T01:23:41.244Z,16.22
2016-09-13T01:24:40.938Z,16.3
2016-09-13T01:25:40.917Z,16.18
2016-09-13T01:26:40.926Z,16.16
2016-09-13T01:27:40.925Z,16.27
2016-09-13T01:28:40.923Z,16.27
2016-09-13T01:29:40.910Z,16.3
2016-09-13T01:30:40.910Z,16.26
2016-09-13T01:31:40.938Z,16.22
2016-09-13T01:32:40.892Z,16.22
2016-09-13T01:33:40.899Z,16.25
2016-09-13T01:34:40.895Z,16.3
2016-09-13T01:35:40.887Z,16.29
2016-09-13T01:36:40.893Z,16.3
2016-09-13T01:37:40.883Z,16.29
2016-09-13T01:38:40.887Z,16.3
2016-09-13T01:39:40.877Z,16.3
2016-09-13T01:40:40.883Z,16.26
2016-09-13T01:41:40.890Z,16.26
2016-09-13T01:42:40.866Z,16.29
2016-09-13T01:43:40.861Z,16.32
2016-09-13T01:44:40.867Z,16.21
2016-09-13T01:45:40.869Z,16.29
2016-09-13T01:46:40.862Z,16.34
2016-09-13T01:47:41.170Z,16.34
2016-09-13T01:48:40.851Z,16.32
2016-09-13T01:49:41.176Z,16.33
2016-09-13T01:50:40.849Z,16.29
2016-09-13T01:51:40.858Z,16.26
2016-09-13T01:52:40.833Z,16.4
2016-09-13T01:53:40.837Z,16.34
2016-09-13T01:54:40.829Z,16.45
2016-09-13T01:55:40.840Z,16.42
2016-09-13T01:56:40.821Z,16.45
2016-09-13T01:57:40.829Z,16.44
2016-09-13T01:58:40.826Z,16.39
2016-09-13T01:59:40.816Z,16.34
2016-09-13T02:00:40.827Z,16.36
2016-09-13T02:01:41.133Z,16.42
2016-09-13T02:02:40.802Z,16.27
2016-09-13T02:03:40.804Z,16.29
2016-09-13T02:04:40.806Z,16.33
2016-09-13T02:05:40.799Z,16.27
2016-09-13T02:06:40.793Z,16.39
2016-09-13T02:07:40.796Z,16.33
2016-09-13T02:08:40.788Z,16.33
2016-09-13T02:09:40.783Z,16.42
2016-09-13T02:10:40.792Z,16.44
2016-09-13T02:11:40.788Z,16.36
2016-09-13T02:12:40.774Z,16.27
2016-09-13T02:13:40.805Z,16.27
2016-09-13T02:14:40.768Z,16.32
2016-09-13T02:15:40.769Z,16.36
2016-09-13T02:16:40.759Z,16.42
2016-09-13T02:17:40.754Z,16.37
2016-09-13T02:18:40.756Z,16.27
2016-09-13T02:19:40.769Z,16.33
2016-09-13T02:20:40.772Z,16.29
2016-09-13T02:21:40.769Z,16.33
2016-09-13T02:22:40.738Z,16.29
2016-09-13T02:23:40.745Z,16.34
2016-09-13T02:24:40.735Z,16.32
2016-09-13T02:25:40.740Z,16.32
2016-09-13T02:26:40.730Z,16.34
2016-09-13T02:27:40.723Z,16.42
2016-09-13T02:28:40.733Z,16.45
2016-09-13T02:29:40.738Z,16.44
2016-09-13T02:30:40.730Z,16.47
2016-09-13T02:31:40.718Z,16.44
2016-09-13T02:32:40.711Z,16.51
2016-09-13T02:33:40.719Z,16.49
2016-09-13T02:34:40.712Z,16.42
2016-09-13T02:35:40.704Z,16.52
2016-09-13T02:36:40.707Z,16.51
2016-09-13T02:37:40.691Z,16.49
2016-09-13T02:38:41.007Z,16.49
2016-09-13T02:39:40.696Z,16.45
2016-09-13T02:40:40.699Z,16.47
2016-09-13T02:41:40.705Z,16.42
2016-09-13T02:42:40.677Z,16.42
2016-09-13T02:43:40.678Z,16.4
2016-09-13T02:44:40.672Z,16.27
2016-09-13T02:45:40.674Z,16.3
2016-09-13T02:46:40.661Z,16.27
2016-09-13T02:47:40.667Z,16.26
2016-09-13T02:48:40.667Z,16.29
2016-09-13T02:49:40.664Z,16.32
2016-09-13T02:50:40.656Z,16.25
2016-09-13T02:51:40.659Z,16.13
2016-09-13T02:52:40.653Z,16.22
2016-09-13T02:53:40.647Z,16.18
2016-09-13T02:54:40.639Z,16.08
2016-09-13T02:55:40.647Z,16.02
2016-09-13T02:56:40.630Z,16.06
2016-09-13T02:57:40.952Z,16.08
2016-09-13T02:58:40.636Z,16.06
2016-09-13T02:59:40.647Z,16.04
2016-09-13T03:00:40.618Z,15.98
2016-09-13T03:01:40.625Z,15.99
2016-09-13T03:02:40.612Z,16.02
2016-09-13T03:03:40.617Z,15.92
2016-09-13T03:04:40.626Z,16.06
2016-09-13T03:05:40.620Z,16.06
2016-09-13T03:06:40.609Z,15.96
2016-09-13T03:07:40.914Z,15.96
2016-09-13T03:08:40.600Z,15.93
2016-09-13T03:09:40.594Z,15.98
2016-09-13T03:10:40.585Z,15.93
2016-09-13T03:11:40.935Z,15.86
2016-09-13T03:12:40.580Z,15.83
2016-09-13T03:13:40.581Z,15.89
2016-09-13T03:14:40.584Z,15.93
2016-09-13T03:15:40.581Z,15.8
2016-09-13T03:16:40.567Z,15.86
2016-09-13T03:17:40.563Z,15.81
2016-09-13T03:18:40.570Z,15.78
2016-09-13T03:19:40.570Z,15.89
2016-09-13T03:20:40.553Z,15.81
2016-09-13T03:21:40.561Z,15.84
2016-09-13T03:22:40.543Z,15.89
2016-09-13T03:23:40.548Z,15.91
2016-09-13T03:24:40.545Z,15.77
2016-09-13T03:25:40.546Z,15.74
2016-09-13T03:26:40.538Z,15.74
2016-09-13T03:27:40.546Z,15.71
2016-09-13T03:28:40.538Z,15.78
2016-09-13T03:29:40.545Z,15.73
2016-09-13T03:30:40.524Z,15.78
2016-09-13T03:31:40.530Z,15.74
2016-09-13T03:32:40.513Z,15.73
2016-09-13T03:33:40.517Z,15.78
2016-09-13T03:34:40.516Z,15.71
2016-09-13T03:35:40.500Z,15.62
2016-09-13T03:36:40.509Z,15.65
2016-09-13T03:37:40.509Z,15.63
2016-09-13T03:38:40.511Z,15.62
2016-09-13T03:39:40.493Z,15.58
2016-09-13T03:40:40.490Z,15.59
2016-09-13T03:41:40.491Z,15.53
2016-09-13T03:42:40.492Z,15.55
2016-09-13T03:43:40.477Z,15.62
2016-09-13T03:44:40.481Z,15.58
2016-09-13T03:45:40.470Z,15.52
2016-09-13T03:46:40.792Z,15.53
2016-09-13T03:47:40.468Z,15.51
2016-09-13T03:48:40.473Z,15.38
2016-09-13T03:49:40.462Z,15.43
2016-09-13T03:50:40.456Z,15.43
2016-09-13T03:51:40.461Z,15.45
2016-09-13T03:52:40.442Z,15.41
2016-09-13T03:53:40.446Z,15.44
2016-09-13T03:54:40.439Z,15.37
2016-09-13T03:55:40.435Z,15.33
2016-09-13T03:56:40.436Z,15.35
2016-09-13T03:57:40.443Z,15.33
2016-09-13T03:58:40.734Z,15.35
2016-09-13T03:59:40.421Z,15.38
2016-09-13T04:00:40.424Z,15.33
2016-09-13T04:01:40.413Z,15.43
2016-09-13T04:02:40.408Z,15.33
2016-09-13T04:03:40.406Z,15.33
2016-09-13T04:04:40.400Z,15.34
2016-09-13T04:05:40.403Z,15.3
2016-09-13T04:06:40.403Z,15.38
2016-09-13T04:07:40.414Z,15.25
2016-09-13T04:08:40.383Z,15.25
2016-09-13T04:09:40.702Z,15.23
2016-09-13T04:10:40.745Z,15.22
2016-09-13T04:11:40.381Z,15.27
2016-09-13T04:12:40.380Z,15.23
2016-09-13T04:13:40.366Z,15.23
2016-09-13T04:14:40.367Z,15.19
2016-09-13T04:15:40.370Z,15.2
2016-09-13T04:16:40.354Z,15.22
2016-09-13T04:17:40.355Z,15.2
2016-09-13T04:18:40.361Z,15.18
2016-09-13T04:19:40.349Z,15.2
2016-09-13T04:20:40.342Z,15.16
2016-09-13T04:21:40.344Z,15.08
2016-09-13T04:22:40.340Z,15.13
2016-09-13T04:23:40.333Z,15.08
2016-09-13T04:24:40.343Z,15.19
2016-09-13T04:25:40.330Z,15.16
2016-09-13T04:26:40.316Z,15.15
2016-09-13T04:27:40.324Z,15.04
2016-09-13T04:28:40.332Z,15.15
2016-09-13T04:29:40.330Z,15.1
2016-09-13T04:30:40.321Z,15.07
2016-09-13T04:31:40.303Z,15.02
2016-09-13T04:32:40.296Z,15.16
2016-09-13T04:33:40.300Z,15.07
2016-09-13T04:34:40.306Z,15.02
2016-09-13T04:35:40.284Z,15.02
2016-09-13T04:36:40.280Z,15.02
2016-09-13T04:37:40.279Z,15.05
2016-09-13T04:38:40.285Z,15.2
2016-09-13T04:39:40.269Z,15
2016-09-13T04:40:40.277Z,15.05
2016-09-13T04:41:40.273Z,15.07
2016-09-13T04:42:40.258Z,15.1
2016-09-13T04:43:40.275Z,15.05
2016-09-13T04:44:40.276Z,15
2016-09-13T04:45:40.252Z,15.05
2016-09-13T04:46:40.245Z,15.08
2016-09-13T04:47:40.240Z,15.16
2016-09-13T04:48:40.246Z,15.13
2016-09-13T04:49:40.225Z,15.12
2016-09-13T04:50:40.224Z,15.08
2016-09-13T04:51:40.228Z,15.12
2016-09-13T04:52:40.230Z,15.2
2016-09-13T04:53:40.213Z,15.13
2016-09-13T04:54:40.210Z,15.16
2016-09-13T04:55:40.210Z,15.2
2016-09-13T04:56:40.203Z,15.23
2016-09-13T04:57:40.197Z,15.2
2016-09-13T04:58:40.201Z,15.22
2016-09-13T04:59:40.184Z,15.25
2016-09-13T05:00:40.183Z,15.23
2016-09-13T05:01:40.195Z,15.25
2016-09-13T05:02:40.184Z,15.35
2016-09-13T05:03:40.165Z,15.27
2016-09-13T05:04:40.169Z,15.33
2016-09-13T05:05:40.158Z,15.33
2016-09-13T05:06:40.244Z,15.34
2016-09-13T05:07:40.178Z,15.45
2016-09-13T05:08:40.149Z,15.58
2016-09-13T05:09:40.147Z,15.67
2016-09-13T05:10:40.153Z,15.75
2016-09-13T05:11:40.156Z,15.71
2016-09-13T05:12:40.137Z,15.84
2016-09-13T05:13:40.130Z,15.89
2016-09-13T05:14:40.128Z,15.96
2016-09-13T05:15:40.320Z,16.02
2016-09-13T05:16:40.129Z,15.93
2016-09-13T05:17:40.119Z,16.06
2016-09-13T05:18:40.111Z,16
2016-09-13T05:19:40.162Z,16.08
2016-09-13T05:20:40.103Z,16.1
2016-09-13T05:21:40.105Z,16.14
2016-09-13T05:22:40.101Z,16.22
2016-09-13T05:23:40.093Z,16.32
2016-09-13T05:24:40.094Z,16.3
2016-09-13T05:25:40.410Z,16.32
2016-09-13T05:26:40.081Z,16.3
2016-09-13T05:27:40.085Z,16.29
2016-09-13T05:28:40.081Z,16.25
2016-09-13T05:29:40.083Z,16.29
2016-09-13T05:30:40.070Z,16.33
2016-09-13T05:31:40.062Z,16.44
2016-09-13T05:32:40.061Z,16.45
2016-09-13T05:33:40.055Z,16.51
2016-09-13T05:34:40.059Z,16.57
2016-09-13T05:35:40.071Z,16.65
2016-09-13T05:36:40.054Z,16.58
2016-09-13T05:37:40.053Z,16.69
2016-09-13T05:38:40.037Z,16.66
2016-09-13T05:39:40.039Z,16.67
2016-09-13T05:40:40.039Z,16.69
2016-09-13T05:41:40.038Z,16.69
2016-09-13T05:42:40.028Z,16.66
2016-09-13T05:43:40.024Z,16.69
2016-09-13T05:44:40.022Z,16.74
2016-09-13T05:45:40.033Z,16.72
2016-09-13T05:46:40.030Z,16.77
2016-09-13T05:47:40.023Z,16.76
2016-09-13T05:49:40.019Z,16.84
2016-09-13T05:50:40.005Z,16.88
2016-09-13T05:51:40.207Z,16.92
2016-09-13T05:52:39.997Z,16.95
2016-09-13T05:53:39.987Z,16.95
2016-09-13T05:54:40.000Z,16.97
2016-09-13T05:55:40.058Z,16.97
2016-09-13T05:56:39.984Z,16.92
2016-09-13T05:57:39.991Z,16.99
2016-09-13T05:58:39.976Z,16.92
2016-09-13T05:59:39.972Z,17.05
2016-09-13T06:00:39.973Z,17.03
2016-09-13T06:01:39.975Z,16.99
2016-09-13T06:02:39.971Z,17
2016-09-13T06:03:39.961Z,17.13
2016-09-13T06:04:39.974Z,17.12
2016-09-13T06:05:40.286Z,17.03
2016-09-13T06:06:39.975Z,17.17
2016-09-13T06:07:39.956Z,17.15
2016-09-13T06:08:39.959Z,17.15
2016-09-13T06:09:39.952Z,17.15
2016-09-13T06:10:39.946Z,17.21
2016-09-13T06:11:39.942Z,17.25
2016-09-13T06:12:39.956Z,17.28
2016-09-13T06:13:39.938Z,17.24
2016-09-13T06:14:39.946Z,17.3
2016-09-13T06:15:39.935Z,17.38
2016-09-13T06:16:39.933Z,17.4
2016-09-13T06:17:39.930Z,17.43
2016-09-13T06:18:39.930Z,17.49
2016-09-13T06:19:39.924Z,17.45
2016-09-13T06:20:39.916Z,17.54
2016-09-13T06:21:39.910Z,17.57
2016-09-13T06:22:40.236Z,17.57
2016-09-13T06:23:39.903Z,17.71
2016-09-13T06:24:39.909Z,17.71
2016-09-13T06:25:39.901Z,17.74
2016-09-13T06:26:39.907Z,17.8
2016-09-13T06:27:39.912Z,17.8
2016-09-13T06:28:39.896Z,17.86
2016-09-13T06:29:39.896Z,17.88
2016-09-13T06:30:39.891Z,17.99
2016-09-13T06:31:39.896Z,18.14
2016-09-13T06:32:39.885Z,18.14
2016-09-13T06:33:39.878Z,18.2
2016-09-13T06:34:39.878Z,18.16
2016-09-13T06:35:39.890Z,18.23
2016-09-13T06:36:39.872Z,18.27
2016-09-13T06:37:39.895Z,18.34
2016-09-13T06:38:39.878Z,18.35
2016-09-13T06:39:39.881Z,18.35
2016-09-13T06:40:39.863Z,18.39
2016-09-13T06:41:39.870Z,18.54
2016-09-13T06:42:39.858Z,18.65
2016-09-13T06:43:39.860Z,18.57
2016-09-13T06:44:39.861Z,18.69
2016-09-13T06:45:39.897Z,18.59
2016-09-13T06:46:39.863Z,18.59
2016-09-13T06:47:39.851Z,18.74
2016-09-13T06:48:39.846Z,18.74
2016-09-13T06:49:39.862Z,18.78
2016-09-13T06:50:39.853Z,18.89
2016-09-13T06:51:39.841Z,18.91
2016-09-13T06:52:39.840Z,18.9
2016-09-13T06:53:39.832Z,18.97
2016-09-13T06:54:39.839Z,19
2016-09-13T06:55:39.844Z,19.06
2016-09-13T06:56:39.831Z,19.05
2016-09-13T06:57:39.840Z,19.23
2016-09-13T06:58:39.828Z,19.24
2016-09-13T06:59:39.840Z,19.3
2016-09-13T07:00:39.836Z,19.4
2016-09-13T07:01:39.819Z,19.38
2016-09-13T07:02:39.827Z,19.46
2016-09-13T07:03:40.133Z,19.52
2016-09-13T07:04:39.833Z,19.65
2016-09-13T07:05:39.821Z,19.78
2016-09-13T07:06:39.819Z,19.87
2016-09-13T07:07:39.818Z,19.97
2016-09-13T07:08:39.822Z,19.97
2016-09-13T07:09:39.825Z,20
2016-09-13T07:10:39.827Z,20.02
2016-09-13T07:11:39.816Z,20.2
2016-09-13T07:12:39.818Z,20.4
2016-09-13T07:13:39.825Z,20.44
2016-09-13T07:14:39.807Z,20.44
2016-09-13T07:15:39.820Z,20.49
2016-09-13T07:16:39.805Z,20.54
2016-09-13T07:17:39.807Z,20.6
2016-09-13T07:18:39.805Z,20.71
2016-09-13T07:19:39.872Z,20.75
2016-09-13T07:20:39.802Z,20.71
2016-09-13T07:21:39.812Z,20.91
2016-09-13T07:22:39.799Z,20.83
2016-09-13T07:23:39.838Z,20.93
2016-09-13T07:24:39.806Z,20.96
2016-09-13T07:25:40.127Z,20.86
2016-09-13T07:26:39.803Z,21
2016-09-13T07:27:39.804Z,21.01
2016-09-13T07:28:39.791Z,20.93
2016-09-13T07:29:40.119Z,20.97
2016-09-13T07:30:39.809Z,21.03
2016-09-13T07:31:39.805Z,20.97
2016-09-13T07:32:39.798Z,21.01
2016-09-13T07:33:39.798Z,21.08
2016-09-13T07:34:39.795Z,21.13
2016-09-13T07:35:39.796Z,21.09
2016-09-13T07:36:39.792Z,21.19
2016-09-13T07:37:39.795Z,21.15
2016-09-13T07:38:39.809Z,21.16
2016-09-13T07:39:39.810Z,21.23
2016-09-13T07:40:39.795Z,21.22
2016-09-13T07:41:39.800Z,21.4
2016-09-13T07:42:39.790Z,21.52
2016-09-13T07:43:39.799Z,21.71
2016-09-13T07:44:39.799Z,21.78
2016-09-13T07:45:39.791Z,21.89
2016-09-13T07:46:39.791Z,21.96
2016-09-13T07:47:39.799Z,22.07
2016-09-13T07:48:39.808Z,22.05
2016-09-13T07:49:39.799Z,22.23
2016-09-13T07:50:39.802Z,22.3
2016-09-13T07:51:39.830Z,22.45
2016-09-13T07:52:39.802Z,22.54
2016-09-13T07:53:39.794Z,22.48
2016-09-13T07:54:39.800Z,22.63
2016-09-13T07:55:39.797Z,22.76
2016-09-13T07:56:39.801Z,22.76
2016-09-13T07:57:39.810Z,22.92
2016-09-13T07:58:39.805Z,22.94
2016-09-13T07:59:39.801Z,22.99
2016-09-13T08:00:39.793Z,23.01
2016-09-13T08:01:39.817Z,23.12
2016-09-13T08:02:39.800Z,23.12
2016-09-13T08:03:39.807Z,23.22
2016-09-13T08:04:40.125Z,23.26
2016-09-13T08:05:39.810Z,23.29
2016-09-13T08:06:39.807Z,23.41
2016-09-13T08:07:39.808Z,23.56
2016-09-13T08:08:39.828Z,23.63
2016-09-13T08:09:40.163Z,23.7
2016-09-13T08:10:39.825Z,23.78
2016-09-13T08:11:39.811Z,23.77
2016-09-13T08:12:39.815Z,23.84
2016-09-13T08:13:39.809Z,23.85
2016-09-13T08:14:40.199Z,23.97
2016-09-13T08:15:39.812Z,24.03
2016-09-13T08:16:39.821Z,24.15
2016-09-13T08:17:39.822Z,24.17
2016-09-13T08:18:39.823Z,24.19
2016-09-13T08:19:39.827Z,24.18
2016-09-13T08:20:39.832Z,24.21
2016-09-13T08:21:39.832Z,24.17
2016-09-13T08:22:39.829Z,24.21
2016-09-13T08:23:39.826Z,24.3
2016-09-13T08:24:39.837Z,24.36
2016-09-13T08:25:39.842Z,24.33
2016-09-13T08:26:39.855Z,24.22
2016-09-13T08:27:39.842Z,23.84
2016-09-13T08:28:39.845Z,23.57
2016-09-13T08:29:39.841Z,23.4
2016-09-13T08:30:39.851Z,23.14
2016-09-13T08:31:39.859Z,23.01
2016-09-13T08:32:39.850Z,22.7
2016-09-13T08:33:39.844Z,22.57
2016-09-13T08:34:39.847Z,22.48
2016-09-13T08:35:39.853Z,22.55
2016-09-13T08:36:39.852Z,22.45
2016-09-13T08:37:39.853Z,22.57
2016-09-13T08:38:39.876Z,22.51
2016-09-13T08:39:39.861Z,22.51
2016-09-13T08:40:39.872Z,22.63
2016-09-13T08:41:39.858Z,22.63
2016-09-13T08:42:39.867Z,22.79
2016-09-13T08:43:39.880Z,22.91
2016-09-13T08:44:39.873Z,22.99
2016-09-13T08:45:39.872Z,23.14
2016-09-13T08:46:40.221Z,23.28
2016-09-13T08:47:39.879Z,23.32
2016-09-13T08:48:39.887Z,23.45
2016-09-13T08:49:39.882Z,23.57
2016-09-13T08:50:39.888Z,23.74
2016-09-13T08:51:39.884Z,23.89
2016-09-13T08:52:39.880Z,24.08
2016-09-13T08:53:39.888Z,24.14
2016-09-13T08:54:39.880Z,24.19
2016-09-13T08:55:39.892Z,24.36
2016-09-13T08:56:39.881Z,24.32
2016-09-13T08:57:39.888Z,24.49
2016-09-13T08:58:39.891Z,24.46
2016-09-13T08:59:39.896Z,24.56
2016-09-13T09:00:39.899Z,24.59
2016-09-13T09:01:39.908Z,24.75
2016-09-13T09:02:39.907Z,24.69
2016-09-13T09:03:39.895Z,24.85
2016-09-13T09:04:39.903Z,24.86
2016-09-13T09:05:39.905Z,24.93
2016-09-13T09:06:39.915Z,24.97
2016-09-13T09:07:39.909Z,25.08
2016-09-13T09:08:39.909Z,25.08
2016-09-13T09:09:39.915Z,25.17
2016-09-13T09:10:39.912Z,25.19
2016-09-13T09:11:39.918Z,25.23
2016-09-13T09:12:39.916Z,25.37
2016-09-13T09:13:39.921Z,25.47
2016-09-13T09:14:39.926Z,25.49
2016-09-13T09:15:39.923Z,25.49
2016-09-13T09:16:39.923Z,25.52
2016-09-13T09:17:39.927Z,25.57
2016-09-13T09:18:39.929Z,25.66
2016-09-13T09:19:39.935Z,25.81
2016-09-13T09:20:39.943Z,25.86
2016-09-13T09:21:39.948Z,25.91
2016-09-13T09:22:39.952Z,25.97
2016-09-13T09:23:39.947Z,26.01
2016-09-13T09:24:39.951Z,25.94
2016-09-13T09:25:40.269Z,26.06
2016-09-13T09:26:40.281Z,26.01
2016-09-13T09:27:39.962Z,26.04
2016-09-13T09:28:39.966Z,26.07
2016-09-13T09:29:39.970Z,26.17
2016-09-13T09:30:39.978Z,26.19
2016-09-13T09:31:39.969Z,26.19
2016-09-13T09:32:39.972Z,26.26
2016-09-13T09:33:39.995Z,26.27
2016-09-13T09:34:39.976Z,26.31
2016-09-13T09:35:39.977Z,26.32
2016-09-13T09:36:39.988Z,26.37
2016-09-13T09:37:39.992Z,26.47
2016-09-13T09:38:40.008Z,26.44
2016-09-13T09:39:39.990Z,26.47
2016-09-13T09:40:39.999Z,26.53
2016-09-13T09:41:39.994Z,26.6
2016-09-13T09:42:40.003Z,26.72
2016-09-13T09:43:40.008Z,26.63
2016-09-13T09:44:40.011Z,26.78
2016-09-13T09:45:40.044Z,26.75
2016-09-13T09:46:40.021Z,26.82
2016-09-13T09:47:40.034Z,26.76
2016-09-13T09:48:40.031Z,26.87
2016-09-13T09:49:40.023Z,26.87
2016-09-13T09:50:40.029Z,26.89
2016-09-13T09:51:40.037Z,26.86
2016-09-13T09:52:40.035Z,26.84
2016-09-13T09:53:40.043Z,26.86
2016-09-13T09:54:40.046Z,26.76
2016-09-13T09:55:40.052Z,26.89
2016-09-13T09:56:40.054Z,26.87
2016-09-13T09:57:40.060Z,26.89
2016-09-13T09:58:40.055Z,26.91
2016-09-13T09:59:40.055Z,26.81
2016-09-13T10:00:40.063Z,26.86
2016-09-13T10:01:40.385Z,26.93
2016-09-13T10:02:40.071Z,26.99
2016-09-13T10:03:40.076Z,27.05
2016-09-13T10:04:40.090Z,26.97
2016-09-13T10:05:40.081Z,26.91
2016-09-13T10:06:40.082Z,26.91
2016-09-13T10:07:40.087Z,26.84
2016-09-13T10:08:40.085Z,26.76
2016-09-13T10:09:40.412Z,26.56
2016-09-13T10:10:40.103Z,26.53
2016-09-13T10:11:40.098Z,26.47
2016-09-13T10:12:40.118Z,26.57
2016-09-13T10:13:40.117Z,26.59
2016-09-13T10:14:40.114Z,26.74
2016-09-13T10:15:40.115Z,26.87
2016-09-13T10:16:40.122Z,26.96
2016-09-13T10:17:40.121Z,27.13
2016-09-13T10:18:40.129Z,27.16
2016-09-13T10:19:40.333Z,27.28
2016-09-13T10:20:40.141Z,27.3
2016-09-13T10:21:40.141Z,27.27
2016-09-13T10:22:40.150Z,27.13
2016-09-13T10:23:40.158Z,27
2016-09-13T10:24:40.160Z,26.97
2016-09-13T10:25:40.185Z,26.96
2016-09-13T10:26:40.155Z,27.08
2016-09-13T10:27:40.177Z,27.08
2016-09-13T10:28:40.164Z,27.23
2016-09-13T10:29:40.173Z,27.41
2016-09-13T10:30:40.175Z,27.61
2016-09-13T10:31:40.205Z,27.68
2016-09-13T10:32:40.184Z,27.72
2016-09-13T10:33:40.192Z,28.01
2016-09-13T10:34:40.190Z,28.08
2016-09-13T10:35:40.192Z,28.11
2016-09-13T10:36:40.201Z,28.18
2016-09-13T10:37:40.203Z,28.17
2016-09-13T10:38:40.530Z,28.21
2016-09-13T10:39:40.215Z,28.23
2016-09-13T10:40:40.219Z,28.38
2016-09-13T10:41:40.246Z,28.3
2016-09-13T10:42:40.235Z,28.48
2016-09-13T10:43:40.287Z,28.48
2016-09-13T10:44:40.296Z,28.51
2016-09-13T10:45:40.249Z,28.48
2016-09-13T10:46:40.257Z,28.45
2016-09-13T10:47:40.328Z,28.45
2016-09-13T10:48:40.262Z,28.38
2016-09-13T10:49:40.253Z,28.31
2016-09-13T10:50:40.266Z,28.35
2016-09-13T10:51:40.264Z,28.31
2016-09-13T10:52:40.592Z,28.31
2016-09-13T10:53:40.277Z,28.33
2016-09-13T10:54:40.279Z,28.38
2016-09-13T10:55:40.283Z,28.38
2016-09-13T10:56:40.282Z,28.35
2016-09-13T10:57:40.292Z,28.39
2016-09-13T10:58:40.294Z,28.36
2016-09-13T10:59:40.302Z,28.38
2016-09-13T11:00:40.328Z,28.28
2016-09-13T11:01:40.316Z,28.14
2016-09-13T11:02:40.321Z,28.18
2016-09-13T11:03:40.643Z,28.16
2016-09-13T11:04:40.691Z,28.17
2016-09-13T11:05:40.329Z,28.09
2016-09-13T11:06:40.650Z,28.05
2016-09-13T11:07:40.858Z,28.16
2016-09-13T11:08:40.340Z,28.23
2016-09-13T11:09:40.347Z,28.23
2016-09-13T11:10:40.352Z,28.18
2016-09-13T11:11:40.354Z,28.3
2016-09-13T11:12:40.360Z,28.3
2016-09-13T11:13:40.368Z,28.36
2016-09-13T11:14:40.365Z,28.33
2016-09-13T11:15:40.382Z,28.43
2016-09-13T11:16:40.703Z,28.43
2016-09-13T11:17:40.389Z,28.36
2016-09-13T11:18:40.393Z,28.43
2016-09-13T11:19:40.780Z,28.48
2016-09-13T11:20:40.409Z,28.49
2016-09-13T11:21:40.414Z,28.53
2016-09-13T11:22:40.421Z,28.57
2016-09-13T11:23:40.430Z,28.65
2016-09-13T11:24:40.429Z,28.8
2016-09-13T11:25:40.422Z,28.82
2016-09-13T11:26:40.433Z,28.76
2016-09-13T11:27:40.430Z,28.78
2016-09-13T11:28:40.436Z,28.9
2016-09-13T11:29:40.442Z,28.86
2016-09-13T11:30:40.451Z,28.94
2016-09-13T11:31:40.461Z,29.01
2016-09-13T11:32:40.465Z,29.08
2016-09-13T11:33:40.473Z,29.1
2016-09-13T11:34:40.478Z,29.23
2016-09-13T11:35:40.478Z,29.28
2016-09-13T11:36:40.498Z,29.21
2016-09-13T11:37:40.486Z,29.29
2016-09-13T11:38:40.491Z,29.28
2016-09-13T11:39:40.501Z,29.35
2016-09-13T11:40:40.507Z,29.47
2016-09-13T11:41:40.843Z,29.5
2016-09-13T11:42:40.518Z,29.5
2016-09-13T11:43:40.529Z,29.55
2016-09-13T11:44:40.524Z,29.61
2016-09-13T11:45:40.537Z,29.65
2016-09-13T11:46:40.536Z,29.66
2016-09-13T11:47:40.544Z,29.52
2016-09-13T11:48:40.563Z,29.4
2016-09-13T11:49:40.554Z,29.3
2016-09-13T11:50:40.558Z,29.17
2016-09-13T11:51:40.569Z,29.08
2016-09-13T11:52:40.575Z,29.11
2016-09-13T11:53:40.585Z,29.1
2016-09-13T11:54:40.589Z,29.03
2016-09-13T11:55:40.599Z,29.02
2016-09-13T11:56:40.600Z,28.91
2016-09-13T11:57:40.610Z,28.82
2016-09-13T11:58:40.606Z,28.68
2016-09-13T11:59:40.618Z,28.57
2016-09-13T12:00:40.625Z,28.53
2016-09-13T12:01:40.639Z,28.63
2016-09-13T12:02:40.629Z,28.63
2016-09-13T12:03:40.638Z,28.63
2016-09-13T12:04:40.637Z,28.76
2016-09-13T12:05:40.642Z,28.8
2016-09-13T12:06:40.645Z,28.85
2016-09-13T12:07:40.658Z,28.82
2016-09-13T12:08:41.267Z,28.73
2016-09-13T12:09:40.679Z,28.65
2016-09-13T12:10:40.669Z,28.54
2016-09-13T12:11:40.680Z,28.36
2016-09-13T12:12:40.688Z,28.36
2016-09-13T12:13:40.684Z,28.2
2016-09-13T12:14:40.689Z,28.21
2016-09-13T12:15:40.695Z,28.18
2016-09-13T12:16:40.702Z,28.08
2016-09-13T12:17:40.711Z,28.05
2016-09-13T12:18:40.712Z,28.14
2016-09-13T12:19:40.769Z,28.03
2016-09-13T12:20:40.724Z,28.06
2016-09-13T12:21:40.726Z,28.14
2016-09-13T12:22:40.728Z,28.12
2016-09-13T12:23:40.733Z,28.17
2016-09-13T12:24:40.738Z,28.08
2016-09-13T12:25:40.747Z,27.99
2016-09-13T12:26:40.755Z,28.03
2016-09-13T12:27:40.754Z,28.09
2016-09-13T12:28:40.767Z,28.18
2016-09-13T12:29:40.763Z,28.23
2016-09-13T12:30:40.777Z,28.36
2016-09-13T12:31:40.778Z,28.41
2016-09-13T12:32:40.791Z,28.54
2016-09-13T12:33:40.788Z,28.55
2016-09-13T12:34:40.790Z,28.7
2016-09-13T12:35:40.800Z,28.78
2016-09-13T12:36:40.943Z,28.91
2016-09-13T12:37:40.807Z,28.98
2016-09-13T12:38:40.931Z,29.03
2016-09-13T12:39:40.930Z,29.01
2016-09-13T12:40:40.935Z,29.01
2016-09-13T12:41:40.944Z,29.05
2016-09-13T12:42:40.953Z,29.08
2016-09-13T12:43:40.949Z,29.08
2016-09-13T12:44:40.938Z,28.95
2016-09-13T12:45:40.945Z,28.98
2016-09-13T12:46:40.970Z,28.97
2016-09-13T12:47:40.951Z,28.91
2016-09-13T12:48:41.085Z,29.02
2016-09-13T12:49:41.095Z,28.95
2016-09-13T12:50:41.091Z,28.92
2016-09-13T12:51:41.100Z,28.83
2016-09-13T12:52:41.101Z,28.79
2016-09-13T12:53:41.106Z,28.8
2016-09-13T12:54:41.109Z,28.79
2016-09-13T12:55:41.125Z,28.72
2016-09-13T12:56:41.127Z,28.65